sensor_id;sensor_type;location;lat;lon;timestamp;P1;durP1;ratioP1;P2;durP2;ratioP2
58338;SDS011;48278;52.704;6.536;2022-07-12T00:01:37;9.02;;;3.53;;
58338;SDS011;48278;52.704;6.536;2022-07-12T00:04:03;10.52;;;3.30;;
58338;SDS011;48278;52.704;6.536;2022-07-12T00:06:28;8.65;;;3.22;;
58338;SDS011;48278;52.704;6.536;2022-07-12T00:08:54;8.88;;;3.28;;
58338;SDS011;48278;52.704;6.536;2022-07-12T00:11:20;12.63;;;3.28;;
58338;SDS011;48278;52.704;6.536;2022-07-12T00:13:45;7.60;;;2.92;;
58338;SDS011;48278;52.704;6.536;2022-07-12T00:16:11;8.20;;;3.42;;
58338;SDS011;48278;52.704;6.536;2022-07-12T00:18:37;7.57;;;3.35;;
58338;SDS011;48278;52.704;6.536;2022-07-12T00:21:03;6.75;;;2.70;;
58338;SDS011;48278;52.704;6.536;2022-07-12T00:23:29;7.18;;;2.92;;
58338;SDS011;48278;52.704;6.536;2022-07-12T00:25:54;9.50;;;3.85;;
58338;SDS011;48278;52.704;6.536;2022-07-12T00:28:20;8.55;;;3.25;;
58338;SDS011;48278;52.704;6.536;2022-07-12T00:30:46;8.13;;;3.90;;
58338;SDS011;48278;52.704;6.536;2022-07-12T00:33:11;7.07;;;2.72;;
58338;SDS011;48278;52.704;6.536;2022-07-12T00:35:37;9.90;;;3.88;;
58338;SDS011;48278;52.704;6.536;2022-07-12T00:38:03;8.93;;;3.40;;
58338;SDS011;48278;52.704;6.536;2022-07-12T00:40:28;9.82;;;3.53;;
58338;SDS011;48278;52.704;6.536;2022-07-12T00:42:54;8.00;;;3.55;;
58338;SDS011;48278;52.704;6.536;2022-07-12T00:45:20;8.63;;;3.78;;
58338;SDS011;48278;52.704;6.536;2022-07-12T00:47:46;9.65;;;4.07;;
58338;SDS011;48278;52.704;6.536;2022-07-12T00:50:14;11.13;;;3.90;;
58338;SDS011;48278;52.704;6.536;2022-07-12T00:52:41;10.07;;;3.50;;
58338;SDS011;48278;52.704;6.536;2022-07-12T00:55:08;8.88;;;3.67;;
58338;SDS011;48278;52.704;6.536;2022-07-12T00:57:35;9.82;;;3.75;;
58338;SDS011;48278;52.704;6.536;2022-07-12T01:00:03;10.45;;;4.30;;
58338;SDS011;48278;52.704;6.536;2022-07-12T01:02:31;8.57;;;3.60;;
58338;SDS011;48278;52.704;6.536;2022-07-12T01:04:57;8.33;;;3.50;;
58338;SDS011;48278;52.704;6.536;2022-07-12T01:07:23;9.48;;;3.83;;
58338;SDS011;48278;52.704;6.536;2022-07-12T01:09:51;8.73;;;3.83;;
58338;SDS011;48278;52.704;6.536;2022-07-12T01:12:20;9.70;;;3.60;;
58338;SDS011;48278;52.704;6.536;2022-07-12T01:17:14;9.38;;;3.72;;
58338;SDS011;48278;52.704;6.536;2022-07-12T01:19:40;8.43;;;3.67;;
58338;SDS011;48278;52.704;6.536;2022-07-12T01:22:10;10.80;;;4.28;;
58338;SDS011;48278;52.704;6.536;2022-07-12T01:24:36;12.55;;;4.22;;
58338;SDS011;48278;52.704;6.536;2022-07-12T01:27:03;11.80;;;3.75;;
58338;SDS011;48278;52.704;6.536;2022-07-12T01:29:29;9.43;;;3.53;;
58338;SDS011;48278;52.704;6.536;2022-07-12T01:31:56;8.00;;;3.63;;
58338;SDS011;48278;52.704;6.536;2022-07-12T01:34:42;7.22;;;3.28;;
58338;SDS011;48278;52.704;6.536;2022-07-12T01:37:09;7.63;;;3.10;;
58338;SDS011;48278;52.704;6.536;2022-07-12T01:42:01;7.73;;;3.13;;
58338;SDS011;48278;52.704;6.536;2022-07-12T01:44:27;8.23;;;3.35;;
58338;SDS011;48278;52.704;6.536;2022-07-12T01:46:52;9.18;;;3.28;;
58338;SDS011;48278;52.704;6.536;2022-07-12T01:49:18;12.48;;;3.70;;
58338;SDS011;48278;52.704;6.536;2022-07-12T01:51:44;8.43;;;3.33;;
58338;SDS011;48278;52.704;6.536;2022-07-12T01:54:09;7.88;;;3.15;;
58338;SDS011;48278;52.704;6.536;2022-07-12T01:56:35;9.13;;;3.85;;
58338;SDS011;48278;52.704;6.536;2022-07-12T01:59:01;8.43;;;3.33;;
58338;SDS011;48278;52.704;6.536;2022-07-12T02:01:27;9.07;;;3.75;;
58338;SDS011;48278;52.704;6.536;2022-07-12T02:03:54;7.32;;;3.30;;
58338;SDS011;48278;52.704;6.536;2022-07-12T02:06:19;6.22;;;2.45;;
58338;SDS011;48278;52.704;6.536;2022-07-12T02:08:45;6.30;;;2.72;;
58338;SDS011;48278;52.704;6.536;2022-07-12T02:11:11;7.55;;;2.83;;
58338;SDS011;48278;52.704;6.536;2022-07-12T02:13:37;7.30;;;2.55;;
58338;SDS011;48278;52.704;6.536;2022-07-12T02:16:04;7.22;;;2.88;;
58338;SDS011;48278;52.704;6.536;2022-07-12T02:18:32;7.90;;;3.03;;
58338;SDS011;48278;52.704;6.536;2022-07-12T02:20:58;8.25;;;3.42;;
58338;SDS011;48278;52.704;6.536;2022-07-12T02:25:50;8.77;;;3.57;;
58338;SDS011;48278;52.704;6.536;2022-07-12T02:28:16;8.45;;;3.38;;
58338;SDS011;48278;52.704;6.536;2022-07-12T02:30:42;9.20;;;3.50;;
58338;SDS011;48278;52.704;6.536;2022-07-12T02:33:08;8.15;;;3.50;;
58338;SDS011;48278;52.704;6.536;2022-07-12T02:35:33;7.68;;;3.17;;
58338;SDS011;48278;52.704;6.536;2022-07-12T02:37:59;7.43;;;3.05;;
58338;SDS011;48278;52.704;6.536;2022-07-12T02:40:25;8.15;;;3.17;;
58338;SDS011;48278;52.704;6.536;2022-07-12T02:43:09;8.85;;;3.45;;
58338;SDS011;48278;52.704;6.536;2022-07-12T02:45:34;8.27;;;3.33;;
58338;SDS011;48278;52.704;6.536;2022-07-12T02:48:00;8.65;;;3.78;;
58338;SDS011;48278;52.704;6.536;2022-07-12T02:50:26;8.95;;;3.90;;
58338;SDS011;48278;52.704;6.536;2022-07-12T02:52:52;9.00;;;3.70;;
58338;SDS011;48278;52.704;6.536;2022-07-12T02:55:17;10.40;;;3.75;;
58338;SDS011;48278;52.704;6.536;2022-07-12T02:57:43;8.63;;;3.83;;
58338;SDS011;48278;52.704;6.536;2022-07-12T03:00:09;8.27;;;3.28;;
58338;SDS011;48278;52.704;6.536;2022-07-12T03:02:36;9.05;;;3.53;;
58338;SDS011;48278;52.704;6.536;2022-07-12T03:05:02;9.50;;;3.38;;
58338;SDS011;48278;52.704;6.536;2022-07-12T03:07:28;9.68;;;3.92;;
58338;SDS011;48278;52.704;6.536;2022-07-12T03:09:54;8.50;;;2.97;;
58338;SDS011;48278;52.704;6.536;2022-07-12T03:12:19;8.30;;;3.40;;
58338;SDS011;48278;52.704;6.536;2022-07-12T03:14:45;9.98;;;3.42;;
58338;SDS011;48278;52.704;6.536;2022-07-12T03:17:11;11.00;;;4.18;;
58338;SDS011;48278;52.704;6.536;2022-07-12T03:19:37;7.70;;;3.05;;
58338;SDS011;48278;52.704;6.536;2022-07-12T03:22:02;11.30;;;4.00;;
58338;SDS011;48278;52.704;6.536;2022-07-12T03:24:28;10.57;;;4.18;;
58338;SDS011;48278;52.704;6.536;2022-07-12T03:26:54;8.80;;;3.42;;
58338;SDS011;48278;52.704;6.536;2022-07-12T03:29:20;9.60;;;3.50;;
58338;SDS011;48278;52.704;6.536;2022-07-12T03:31:45;9.30;;;3.70;;
58338;SDS011;48278;52.704;6.536;2022-07-12T03:34:11;9.40;;;3.75;;
58338;SDS011;48278;52.704;6.536;2022-07-12T03:36:37;9.20;;;3.90;;
58338;SDS011;48278;52.704;6.536;2022-07-12T03:39:02;10.60;;;4.13;;
58338;SDS011;48278;52.704;6.536;2022-07-12T03:41:28;13.38;;;4.07;;
58338;SDS011;48278;52.704;6.536;2022-07-12T03:43:54;16.85;;;3.95;;
58338;SDS011;48278;52.704;6.536;2022-07-12T03:46:19;9.50;;;3.50;;
58338;SDS011;48278;52.704;6.536;2022-07-12T03:48:45;12.65;;;3.85;;
58338;SDS011;48278;52.704;6.536;2022-07-12T03:51:11;10.95;;;3.97;;
58338;SDS011;48278;52.704;6.536;2022-07-12T03:53:36;10.95;;;4.07;;
58338;SDS011;48278;52.704;6.536;2022-07-12T03:56:02;10.88;;;4.05;;
58338;SDS011;48278;52.704;6.536;2022-07-12T03:58:28;9.20;;;3.55;;
58338;SDS011;48278;52.704;6.536;2022-07-12T04:00:53;12.82;;;3.40;;
58338;SDS011;48278;52.704;6.536;2022-07-12T04:03:19;11.20;;;4.18;;
58338;SDS011;48278;52.704;6.536;2022-07-12T04:05:45;9.40;;;3.83;;
58338;SDS011;48278;52.704;6.536;2022-07-12T04:08:10;13.05;;;3.92;;
58338;SDS011;48278;52.704;6.536;2022-07-12T04:10:36;20.58;;;3.80;;
58338;SDS011;48278;52.704;6.536;2022-07-12T04:13:02;23.35;;;3.50;;
58338;SDS011;48278;52.704;6.536;2022-07-12T04:15:27;14.15;;;3.33;;
58338;SDS011;48278;52.704;6.536;2022-07-12T04:17:53;12.35;;;3.47;;
58338;SDS011;48278;52.704;6.536;2022-07-12T04:20:19;6.60;;;3.20;;
58338;SDS011;48278;52.704;6.536;2022-07-12T04:22:45;17.35;;;3.25;;
58338;SDS011;48278;52.704;6.536;2022-07-12T04:25:10;10.18;;;3.35;;
58338;SDS011;48278;52.704;6.536;2022-07-12T04:27:36;11.07;;;3.22;;
58338;SDS011;48278;52.704;6.536;2022-07-12T04:30:02;17.15;;;3.42;;
58338;SDS011;48278;52.704;6.536;2022-07-12T04:32:28;10.07;;;3.92;;
58338;SDS011;48278;52.704;6.536;2022-07-12T04:34:54;14.73;;;4.50;;
58338;SDS011;48278;52.704;6.536;2022-07-12T04:37:20;10.70;;;4.50;;
58338;SDS011;48278;52.704;6.536;2022-07-12T04:39:45;13.20;;;4.85;;
58338;SDS011;48278;52.704;6.536;2022-07-12T04:42:11;11.02;;;4.88;;
58338;SDS011;48278;52.704;6.536;2022-07-12T04:44:37;14.63;;;5.30;;
58338;SDS011;48278;52.704;6.536;2022-07-12T04:47:02;13.82;;;5.68;;
58338;SDS011;48278;52.704;6.536;2022-07-12T04:49:31;12.43;;;5.90;;
58338;SDS011;48278;52.704;6.536;2022-07-12T04:51:57;14.32;;;6.30;;
58338;SDS011;48278;52.704;6.536;2022-07-12T04:54:23;13.25;;;5.60;;
58338;SDS011;48278;52.704;6.536;2022-07-12T04:56:49;17.67;;;6.65;;
58338;SDS011;48278;52.704;6.536;2022-07-12T04:59:14;17.08;;;6.50;;
58338;SDS011;48278;52.704;6.536;2022-07-12T05:01:40;16.00;;;6.30;;
58338;SDS011;48278;52.704;6.536;2022-07-12T05:04:06;15.95;;;6.78;;
58338;SDS011;48278;52.704;6.536;2022-07-12T05:06:32;15.07;;;6.40;;
58338;SDS011;48278;52.704;6.536;2022-07-12T05:08:58;15.03;;;6.07;;
58338;SDS011;48278;52.704;6.536;2022-07-12T05:11:24;16.13;;;6.50;;
58338;SDS011;48278;52.704;6.536;2022-07-12T05:13:49;13.38;;;6.00;;
58338;SDS011;48278;52.704;6.536;2022-07-12T05:16:15;14.38;;;6.32;;
58338;SDS011;48278;52.704;6.536;2022-07-12T05:18:41;12.20;;;6.00;;
58338;SDS011;48278;52.704;6.536;2022-07-12T05:21:06;14.07;;;5.65;;
58338;SDS011;48278;52.704;6.536;2022-07-12T05:23:32;15.73;;;6.00;;
58338;SDS011;48278;52.704;6.536;2022-07-12T05:25:58;14.45;;;6.22;;
58338;SDS011;48278;52.704;6.536;2022-07-12T05:28:24;12.73;;;5.65;;
58338;SDS011;48278;52.704;6.536;2022-07-12T05:30:49;12.52;;;5.50;;
58338;SDS011;48278;52.704;6.536;2022-07-12T05:33:15;11.73;;;5.60;;
58338;SDS011;48278;52.704;6.536;2022-07-12T05:35:41;12.07;;;5.70;;
58338;SDS011;48278;52.704;6.536;2022-07-12T05:38:06;13.90;;;5.78;;
58338;SDS011;48278;52.704;6.536;2022-07-12T05:40:32;12.98;;;6.47;;
58338;SDS011;48278;52.704;6.536;2022-07-12T05:42:58;12.15;;;6.25;;
58338;SDS011;48278;52.704;6.536;2022-07-12T05:45:24;13.68;;;6.30;;
58338;SDS011;48278;52.704;6.536;2022-07-12T05:47:49;12.85;;;6.35;;
58338;SDS011;48278;52.704;6.536;2022-07-12T05:50:15;13.00;;;6.15;;
58338;SDS011;48278;52.704;6.536;2022-07-12T05:52:41;11.13;;;5.63;;
58338;SDS011;48278;52.704;6.536;2022-07-12T05:55:25;10.35;;;5.55;;
58338;SDS011;48278;52.704;6.536;2022-07-12T05:57:51;11.30;;;5.97;;
58338;SDS011;48278;52.704;6.536;2022-07-12T06:00:17;11.68;;;5.75;;
58338;SDS011;48278;52.704;6.536;2022-07-12T06:02:42;12.27;;;5.57;;
58338;SDS011;48278;52.704;6.536;2022-07-12T06:05:08;12.90;;;5.33;;
58338;SDS011;48278;52.704;6.536;2022-07-12T06:07:34;14.35;;;5.40;;
58338;SDS011;48278;52.704;6.536;2022-07-12T06:10:00;12.13;;;5.28;;
58338;SDS011;48278;52.704;6.536;2022-07-12T06:12:26;10.75;;;4.95;;
58338;SDS011;48278;52.704;6.536;2022-07-12T06:14:51;10.73;;;5.60;;
58338;SDS011;48278;52.704;6.536;2022-07-12T06:17:17;13.27;;;6.87;;
58338;SDS011;48278;52.704;6.536;2022-07-12T06:19:46;16.88;;;7.80;;
58338;SDS011;48278;52.704;6.536;2022-07-12T06:22:12;14.95;;;8.13;;
58338;SDS011;48278;52.704;6.536;2022-07-12T06:24:38;14.60;;;7.75;;
58338;SDS011;48278;52.704;6.536;2022-07-12T06:27:04;18.92;;;8.23;;
58338;SDS011;48278;52.704;6.536;2022-07-12T06:29:30;15.65;;;8.13;;
58338;SDS011;48278;52.704;6.536;2022-07-12T06:31:56;12.35;;;6.82;;
58338;SDS011;48278;52.704;6.536;2022-07-12T06:34:21;13.87;;;6.50;;
58338;SDS011;48278;52.704;6.536;2022-07-12T06:36:47;11.63;;;6.25;;
58338;SDS011;48278;52.704;6.536;2022-07-12T06:39:13;11.53;;;5.87;;
58338;SDS011;48278;52.704;6.536;2022-07-12T06:41:39;14.03;;;6.33;;
58338;SDS011;48278;52.704;6.536;2022-07-12T06:44:04;11.97;;;6.33;;
58338;SDS011;48278;52.704;6.536;2022-07-12T06:46:30;10.90;;;6.25;;
58338;SDS011;48278;52.704;6.536;2022-07-12T06:48:56;13.20;;;6.30;;
58338;SDS011;48278;52.704;6.536;2022-07-12T06:51:21;10.25;;;6.25;;
58338;SDS011;48278;52.704;6.536;2022-07-12T06:53:47;12.75;;;6.90;;
58338;SDS011;48278;52.704;6.536;2022-07-12T06:56:13;12.73;;;6.23;;
58338;SDS011;48278;52.704;6.536;2022-07-12T06:58:39;11.43;;;6.25;;
58338;SDS011;48278;52.704;6.536;2022-07-12T07:01:05;12.57;;;7.10;;
58338;SDS011;48278;52.704;6.536;2022-07-12T07:03:31;14.70;;;6.80;;
58338;SDS011;48278;52.704;6.536;2022-07-12T07:05:56;14.00;;;6.67;;
58338;SDS011;48278;52.704;6.536;2022-07-12T07:08:22;12.83;;;6.63;;
58338;SDS011;48278;52.704;6.536;2022-07-12T07:10:48;11.53;;;6.53;;
58338;SDS011;48278;52.704;6.536;2022-07-12T07:13:13;14.00;;;6.40;;
58338;SDS011;48278;52.704;6.536;2022-07-12T07:15:39;13.93;;;6.50;;
58338;SDS011;48278;52.704;6.536;2022-07-12T07:18:05;10.40;;;6.15;;
58338;SDS011;48278;52.704;6.536;2022-07-12T07:20:32;10.75;;;6.43;;
58338;SDS011;48278;52.704;6.536;2022-07-12T07:22:57;11.23;;;6.63;;
58338;SDS011;48278;52.704;6.536;2022-07-12T07:25:23;14.20;;;6.80;;
58338;SDS011;48278;52.704;6.536;2022-07-12T07:27:49;12.93;;;7.40;;
58338;SDS011;48278;52.704;6.536;2022-07-12T07:30:14;13.30;;;7.07;;
58338;SDS011;48278;52.704;6.536;2022-07-12T07:32:59;12.48;;;7.05;;
58338;SDS011;48278;52.704;6.536;2022-07-12T07:35:24;15.60;;;7.10;;
58338;SDS011;48278;52.704;6.536;2022-07-12T07:37:50;13.37;;;6.93;;
58338;SDS011;48278;52.704;6.536;2022-07-12T07:40:16;13.57;;;7.27;;
58338;SDS011;48278;52.704;6.536;2022-07-12T07:42:41;12.87;;;6.97;;
58338;SDS011;48278;52.704;6.536;2022-07-12T07:45:07;11.77;;;7.03;;
58338;SDS011;48278;52.704;6.536;2022-07-12T07:47:42;12.10;;;7.10;;
58338;SDS011;48278;52.704;6.536;2022-07-12T07:50:12;11.50;;;6.95;;
58338;SDS011;48278;52.704;6.536;2022-07-12T07:52:37;11.83;;;6.93;;
58338;SDS011;48278;52.704;6.536;2022-07-12T07:55:03;11.23;;;6.83;;
58338;SDS011;48278;52.704;6.536;2022-07-12T07:57:29;11.32;;;6.85;;
58338;SDS011;48278;52.704;6.536;2022-07-12T07:59:55;13.63;;;7.63;;
58338;SDS011;48278;52.704;6.536;2022-07-12T08:02:21;12.47;;;7.27;;
58338;SDS011;48278;52.704;6.536;2022-07-12T08:04:46;13.50;;;7.03;;
58338;SDS011;48278;52.704;6.536;2022-07-12T08:07:12;11.80;;;6.40;;
58338;SDS011;48278;52.704;6.536;2022-07-12T08:09:39;11.27;;;6.47;;
58338;SDS011;48278;52.704;6.536;2022-07-12T08:12:05;10.30;;;6.30;;
58338;SDS011;48278;52.704;6.536;2022-07-12T08:14:31;9.15;;;5.78;;
58338;SDS011;48278;52.704;6.536;2022-07-12T08:16:57;11.90;;;6.77;;
58338;SDS011;48278;52.704;6.536;2022-07-12T08:19:22;9.57;;;5.93;;
58338;SDS011;48278;52.704;6.536;2022-07-12T08:21:48;10.27;;;5.60;;
58338;SDS011;48278;52.704;6.536;2022-07-12T08:24:14;14.07;;;6.13;;
58338;SDS011;48278;52.704;6.536;2022-07-12T08:26:39;11.80;;;5.80;;
58338;SDS011;48278;52.704;6.536;2022-07-12T08:29:05;13.63;;;6.80;;
58338;SDS011;48278;52.704;6.536;2022-07-12T08:31:31;14.90;;;6.30;;
58338;SDS011;48278;52.704;6.536;2022-07-12T08:33:57;11.07;;;6.10;;
58338;SDS011;48278;52.704;6.536;2022-07-12T08:36:22;12.17;;;7.53;;
58338;SDS011;48278;52.704;6.536;2022-07-12T08:38:48;10.77;;;7.17;;
58338;SDS011;48278;52.704;6.536;2022-07-12T08:41:14;11.67;;;7.10;;
58338;SDS011;48278;52.704;6.536;2022-07-12T08:43:40;12.23;;;6.85;;
58338;SDS011;48278;52.704;6.536;2022-07-12T08:46:07;14.48;;;7.03;;
58338;SDS011;48278;52.704;6.536;2022-07-12T08:48:36;11.98;;;6.70;;
58338;SDS011;48278;52.704;6.536;2022-07-12T08:51:06;12.02;;;7.80;;
58338;SDS011;48278;52.704;6.536;2022-07-12T08:53:33;12.70;;;7.13;;
58338;SDS011;48278;52.704;6.536;2022-07-12T08:55:59;13.45;;;8.10;;
58338;SDS011;48278;52.704;6.536;2022-07-12T08:58:26;18.08;;;8.75;;
58338;SDS011;48278;52.704;6.536;2022-07-12T09:00:52;13.17;;;8.63;;
58338;SDS011;48278;52.704;6.536;2022-07-12T09:03:18;12.63;;;8.73;;
58338;SDS011;48278;52.704;6.536;2022-07-12T09:05:47;14.43;;;9.23;;
58338;SDS011;48278;52.704;6.536;2022-07-12T09:08:16;14.45;;;8.43;;
58338;SDS011;48278;52.704;6.536;2022-07-12T09:13:15;16.17;;;9.23;;
58338;SDS011;48278;52.704;6.536;2022-07-12T09:15:41;15.70;;;9.82;;
58338;SDS011;48278;52.704;6.536;2022-07-12T09:18:07;13.73;;;7.73;;
58338;SDS011;48278;52.704;6.536;2022-07-12T09:20:41;13.75;;;7.90;;
58338;SDS011;48278;52.704;6.536;2022-07-12T09:23:12;19.40;;;8.43;;
58338;SDS011;48278;52.704;6.536;2022-07-12T09:25:38;11.55;;;6.70;;
58338;SDS011;48278;52.704;6.536;2022-07-12T09:28:08;11.65;;;6.55;;
58338;SDS011;48278;52.704;6.536;2022-07-12T09:30:35;13.75;;;6.78;;
58338;SDS011;48278;52.704;6.536;2022-07-12T09:33:03;10.60;;;6.00;;
58338;SDS011;48278;52.704;6.536;2022-07-12T09:41:04;9.35;;;5.90;;
58338;SDS011;48278;52.704;6.536;2022-07-12T09:43:34;10.95;;;5.53;;
58338;SDS011;48278;52.704;6.536;2022-07-12T09:46:00;7.55;;;4.72;;
58338;SDS011;48278;52.704;6.536;2022-07-12T09:48:26;9.07;;;5.22;;
58338;SDS011;48278;52.704;6.536;2022-07-12T09:50:57;9.65;;;4.68;;
58338;SDS011;48278;52.704;6.536;2022-07-12T09:53:30;11.40;;;6.13;;
58338;SDS011;48278;52.704;6.536;2022-07-12T09:55:59;11.90;;;5.90;;
58338;SDS011;48278;52.704;6.536;2022-07-12T09:58:36;7.53;;;4.50;;
58338;SDS011;48278;52.704;6.536;2022-07-12T10:01:24;5.60;;;2.47;;
58338;SDS011;48278;52.704;6.536;2022-07-12T10:03:50;6.70;;;3.40;;
58338;SDS011;48278;52.704;6.536;2022-07-12T10:06:24;8.75;;;4.80;;
58338;SDS011;48278;52.704;6.536;2022-07-12T10:08:51;12.13;;;5.57;;
58338;SDS011;48278;52.704;6.536;2022-07-12T10:11:17;14.25;;;5.40;;
58338;SDS011;48278;52.704;6.536;2022-07-12T10:13:44;9.15;;;5.70;;
58338;SDS011;48278;52.704;6.536;2022-07-12T10:16:11;8.85;;;4.35;;
58338;SDS011;48278;52.704;6.536;2022-07-12T10:18:40;5.93;;;3.33;;
58338;SDS011;48278;52.704;6.536;2022-07-12T10:21:18;6.00;;;3.63;;
58338;SDS011;48278;52.704;6.536;2022-07-12T10:23:45;8.77;;;4.53;;
58338;SDS011;48278;52.704;6.536;2022-07-12T10:31:29;6.82;;;4.32;;
58338;SDS011;48278;52.704;6.536;2022-07-12T10:34:19;6.00;;;3.72;;
58338;SDS011;48278;52.704;6.536;2022-07-12T10:39:22;5.38;;;3.40;;
58338;SDS011;48278;52.704;6.536;2022-07-12T10:44:36;5.90;;;3.25;;
58338;SDS011;48278;52.704;6.536;2022-07-12T10:47:10;5.78;;;3.30;;
58338;SDS011;48278;52.704;6.536;2022-07-12T10:49:47;8.25;;;3.72;;
58338;SDS011;48278;52.704;6.536;2022-07-12T10:52:15;6.82;;;2.50;;
58338;SDS011;48278;52.704;6.536;2022-07-12T11:00:06;4.47;;;1.77;;
58338;SDS011;48278;52.704;6.536;2022-07-12T11:02:34;3.53;;;1.38;;
58338;SDS011;48278;52.704;6.536;2022-07-12T11:05:00;3.35;;;0.93;;
58338;SDS011;48278;52.704;6.536;2022-07-12T11:07:26;2.10;;;0.77;;
58338;SDS011;48278;52.704;6.536;2022-07-12T11:09:54;4.22;;;0.88;;
58338;SDS011;48278;52.704;6.536;2022-07-12T11:12:21;2.17;;;0.80;;
58338;SDS011;48278;52.704;6.536;2022-07-12T11:14:54;3.63;;;0.90;;
58338;SDS011;48278;52.704;6.536;2022-07-12T11:17:20;2.47;;;0.80;;
58338;SDS011;48278;52.704;6.536;2022-07-12T11:22:31;2.65;;;1.00;;
58338;SDS011;48278;52.704;6.536;2022-07-12T11:24:58;3.10;;;0.90;;
58338;SDS011;48278;52.704;6.536;2022-07-12T11:27:26;6.30;;;0.60;;
58338;SDS011;48278;52.704;6.536;2022-07-12T11:29:55;5.75;;;0.80;;
58338;SDS011;48278;52.704;6.536;2022-07-12T11:32:34;24.98;;;5.15;;
58338;SDS011;48278;52.704;6.536;2022-07-12T11:35:16;1.30;;;0.35;;
58338;SDS011;48278;52.704;6.536;2022-07-12T11:37:52;0.82;;;0.40;;
58338;SDS011;48278;52.704;6.536;2022-07-12T11:40:26;2.47;;;0.30;;
58338;SDS011;48278;52.704;6.536;2022-07-12T11:42:58;0.70;;;0.30;;
58338;SDS011;48278;52.704;6.536;2022-07-12T11:45:28;1.52;;;0.40;;
58338;SDS011;48278;52.704;6.536;2022-07-12T11:47:55;4.13;;;0.50;;
58338;SDS011;48278;52.704;6.536;2022-07-12T11:50:23;2.95;;;0.50;;
58338;SDS011;48278;52.704;6.536;2022-07-12T11:52:48;1.77;;;0.60;;
58338;SDS011;48278;52.704;6.536;2022-07-12T11:55:14;1.17;;;0.45;;
58338;SDS011;48278;52.704;6.536;2022-07-12T11:57:41;1.30;;;0.38;;
58338;SDS011;48278;52.704;6.536;2022-07-12T12:00:20;1.55;;;0.30;;
58338;SDS011;48278;52.704;6.536;2022-07-12T12:02:54;4.63;;;0.40;;
58338;SDS011;48278;52.704;6.536;2022-07-12T12:05:20;6.13;;;0.45;;
58338;SDS011;48278;52.704;6.536;2022-07-12T12:07:46;2.00;;;0.52;;
58338;SDS011;48278;52.704;6.536;2022-07-12T12:10:13;3.53;;;0.52;;
58338;SDS011;48278;52.704;6.536;2022-07-12T12:12:49;2.10;;;0.60;;
58338;SDS011;48278;52.704;6.536;2022-07-12T12:17:55;4.10;;;0.95;;
58338;SDS011;48278;52.704;6.536;2022-07-12T12:20:26;3.17;;;0.80;;
58338;SDS011;48278;52.704;6.536;2022-07-12T12:23:00;2.58;;;0.68;;
58338;SDS011;48278;52.704;6.536;2022-07-12T12:25:28;5.13;;;1.00;;
58338;SDS011;48278;52.704;6.536;2022-07-12T12:27:55;3.92;;;0.73;;
58338;SDS011;48278;52.704;6.536;2022-07-12T12:30:22;2.80;;;0.63;;
58338;SDS011;48278;52.704;6.536;2022-07-12T12:35:34;2.38;;;0.80;;
58338;SDS011;48278;52.704;6.536;2022-07-12T12:38:15;5.40;;;0.50;;
58338;SDS011;48278;52.704;6.536;2022-07-12T12:40:49;2.53;;;0.60;;
58338;SDS011;48278;52.704;6.536;2022-07-12T12:43:19;2.10;;;0.73;;
58338;SDS011;48278;52.704;6.536;2022-07-12T12:45:49;2.60;;;0.70;;
58338;SDS011;48278;52.704;6.536;2022-07-12T12:48:20;3.60;;;0.60;;
58338;SDS011;48278;52.704;6.536;2022-07-12T12:50:48;1.48;;;0.52;;
58338;SDS011;48278;52.704;6.536;2022-07-12T12:55:43;2.17;;;0.55;;
58338;SDS011;48278;52.704;6.536;2022-07-12T12:58:10;1.92;;;0.77;;
58338;SDS011;48278;52.704;6.536;2022-07-12T13:00:38;2.45;;;0.70;;
58338;SDS011;48278;52.704;6.536;2022-07-12T13:03:07;2.30;;;0.60;;
58338;SDS011;48278;52.704;6.536;2022-07-12T13:05:35;4.45;;;0.80;;
58338;SDS011;48278;52.704;6.536;2022-07-12T13:08:01;4.45;;;0.50;;
58338;SDS011;48278;52.704;6.536;2022-07-12T13:10:28;3.97;;;0.68;;
58338;SDS011;48278;52.704;6.536;2022-07-12T13:15:20;2.13;;;0.50;;
58338;SDS011;48278;52.704;6.536;2022-07-12T13:17:47;1.17;;;0.52;;
58338;SDS011;48278;52.704;6.536;2022-07-12T13:20:13;2.03;;;0.50;;
58338;SDS011;48278;52.704;6.536;2022-07-12T13:22:40;3.20;;;0.63;;
58338;SDS011;48278;52.704;6.536;2022-07-12T13:25:07;2.80;;;0.70;;
58338;SDS011;48278;52.704;6.536;2022-07-12T13:27:34;3.63;;;0.57;;
58338;SDS011;48278;52.704;6.536;2022-07-12T13:30:02;1.30;;;0.55;;
58338;SDS011;48278;52.704;6.536;2022-07-12T13:32:28;2.72;;;0.52;;
58338;SDS011;48278;52.704;6.536;2022-07-12T13:34:53;1.90;;;0.50;;
58338;SDS011;48278;52.704;6.536;2022-07-12T13:37:19;2.65;;;0.60;;
58338;SDS011;48278;52.704;6.536;2022-07-12T13:39:45;0.75;;;0.40;;
58338;SDS011;48278;52.704;6.536;2022-07-12T13:42:29;1.80;;;0.50;;
58338;SDS011;48278;52.704;6.536;2022-07-12T13:44:55;1.17;;;0.47;;
58338;SDS011;48278;52.704;6.536;2022-07-12T13:47:21;1.30;;;0.57;;
58338;SDS011;48278;52.704;6.536;2022-07-12T13:49:47;3.35;;;0.60;;
58338;SDS011;48278;52.704;6.536;2022-07-12T13:54:40;4.40;;;0.70;;
58338;SDS011;48278;52.704;6.536;2022-07-12T13:57:06;5.35;;;0.70;;
58338;SDS011;48278;52.704;6.536;2022-07-12T13:59:32;2.17;;;0.77;;
58338;SDS011;48278;52.704;6.536;2022-07-12T14:01:58;1.42;;;0.60;;
58338;SDS011;48278;52.704;6.536;2022-07-12T14:04:24;4.13;;;0.70;;
58338;SDS011;48278;52.704;6.536;2022-07-12T14:06:49;3.00;;;0.80;;
58338;SDS011;48278;52.704;6.536;2022-07-12T14:09:15;1.65;;;0.77;;
58338;SDS011;48278;52.704;6.536;2022-07-12T14:11:41;2.38;;;0.80;;
58338;SDS011;48278;52.704;6.536;2022-07-12T14:14:07;1.58;;;0.70;;
58338;SDS011;48278;52.704;6.536;2022-07-12T14:16:33;2.80;;;0.90;;
58338;SDS011;48278;52.704;6.536;2022-07-12T14:18:59;3.63;;;0.90;;
58338;SDS011;48278;52.704;6.536;2022-07-12T14:21:26;3.33;;;0.93;;
58338;SDS011;48278;52.704;6.536;2022-07-12T14:23:58;2.72;;;1.20;;
58338;SDS011;48278;52.704;6.536;2022-07-12T14:26:28;2.20;;;0.85;;
58338;SDS011;48278;52.704;6.536;2022-07-12T14:28:54;3.53;;;1.00;;
58338;SDS011;48278;52.704;6.536;2022-07-12T14:31:20;2.65;;;1.35;;
58338;SDS011;48278;52.704;6.536;2022-07-12T14:33:45;3.13;;;1.20;;
58338;SDS011;48278;52.704;6.536;2022-07-12T14:36:11;4.57;;;1.00;;
58338;SDS011;48278;52.704;6.536;2022-07-12T14:38:37;2.33;;;0.90;;
58338;SDS011;48278;52.704;6.536;2022-07-12T14:41:02;3.38;;;1.40;;
58338;SDS011;48278;52.704;6.536;2022-07-12T14:43:28;3.10;;;1.00;;
58338;SDS011;48278;52.704;6.536;2022-07-12T14:45:54;2.22;;;1.00;;
58338;SDS011;48278;52.704;6.536;2022-07-12T14:48:20;3.78;;;1.05;;
58338;SDS011;48278;52.704;6.536;2022-07-12T14:50:47;2.55;;;1.10;;
58338;SDS011;48278;52.704;6.536;2022-07-12T14:53:13;3.35;;;1.00;;
58338;SDS011;48278;52.704;6.536;2022-07-12T14:55:38;4.22;;;1.27;;
58338;SDS011;48278;52.704;6.536;2022-07-12T14:58:05;4.22;;;1.33;;
58338;SDS011;48278;52.704;6.536;2022-07-12T15:00:34;5.03;;;1.40;;
58338;SDS011;48278;52.704;6.536;2022-07-12T15:03:00;6.57;;;1.40;;
58338;SDS011;48278;52.704;6.536;2022-07-12T15:05:27;2.35;;;1.20;;
58338;SDS011;48278;52.704;6.536;2022-07-12T15:07:53;2.70;;;1.13;;
58338;SDS011;48278;52.704;6.536;2022-07-12T15:10:19;5.03;;;1.15;;
58338;SDS011;48278;52.704;6.536;2022-07-12T15:12:45;4.00;;;1.20;;
58338;SDS011;48278;52.704;6.536;2022-07-12T15:15:11;2.53;;;1.27;;
58338;SDS011;48278;52.704;6.536;2022-07-12T15:17:37;3.78;;;1.10;;
58338;SDS011;48278;52.704;6.536;2022-07-12T15:20:03;3.53;;;1.08;;
58338;SDS011;48278;52.704;6.536;2022-07-12T15:22:30;4.40;;;1.20;;
58338;SDS011;48278;52.704;6.536;2022-07-12T15:24:56;2.70;;;1.02;;
58338;SDS011;48278;52.704;6.536;2022-07-12T15:27:22;5.30;;;1.20;;